Anchor Point, Alaska
Current Conditions -  °F | °C
As of 1:53 AM on Saturday 25 Oct 2014 (Local Time) from PAHO Reporting Station
Clear Clear  
Wind Chill: -1°   Ceiling: Unl
Heat Index: -1°   Visibility: 10mi
Dew Point: -6°   Wind: 0mph
Humidity: 67%   Direction: NA
Pressure: 29.91"   Gusts: NA
Location:  59.77°N, 151.82°W
Report Text: PAHO 250953Z AUTO 00000KT 10SM CLR M01/M06 A2991 RMK SLP129 T10061061 TSNO VIA AUTODIAL
Loading
Personal Weather Stations






























Interactive Weather Map
Tropical Storm Tracking
New forecast layout! Learn more

10-Day Weather Forecast

Advertisements
Track Severe Weather on mobile